Terminal Aerodrome Forecast
Issued by NWS Tuscon, AZ

Home | Current Version | Previous Version | Text Only | Print | Product List | Glossary On
Versions: 1 2 3 4 5 6 7 8 9 10 11 12 13 14 15 16 17 18
000
FTUS45 KTWC 062320
TAFDUG
TAF
KDUG 062320Z 0700/0724 29009KT P6SM VCTS SCT070CB SCT130
      TEMPO 0700/0702 VRB15G20KT
     FM070200 32006KT P6SM SCT070 BKN130
     FM070800 04005KT P6SM FEW070 SCT130
     FM071900 26007KT P6SM SCT090=

USA.gov is the U.S. government's official web portal to all federal, state and local government web resources and services.